createdAt,value
2017-09-13T00:00:02.101Z,11.12
2017-09-13T00:01:11.729Z,11.1
2017-09-13T00:02:21.963Z,11.04
2017-09-13T00:03:31.901Z,11.01
2017-09-13T00:04:41.523Z,10.92
2017-09-13T00:05:51.796Z,10.97
2017-09-13T00:07:02.058Z,10.97
2017-09-13T00:08:12.574Z,10.89
2017-09-13T00:09:22.831Z,10.87
2017-09-13T00:10:32.766Z,10.87
2017-09-13T00:11:43.032Z,10.8
2017-09-13T00:12:53.299Z,10.84
2017-09-13T00:14:05.559Z,10.71
2017-09-13T00:15:15.500Z,10.59
2017-09-13T00:16:25.771Z,10.64
2017-09-13T00:17:35.712Z,10.51
2017-09-13T00:18:45.668Z,10.49
2017-09-13T00:19:55.963Z,10.3
2017-09-13T00:21:06.230Z,10.23
2017-09-13T00:22:16.491Z,10.3
2017-09-13T00:23:26.754Z,10.28
2017-09-13T00:24:37.017Z,10.2
2017-09-13T00:25:47.284Z,10.2
2017-09-13T00:26:57.552Z,10.17
2017-09-13T00:28:07.808Z,10.2
2017-09-13T00:29:17.748Z,10.17
2017-09-13T00:30:27.370Z,10.23
2017-09-13T00:31:37.634Z,10.18
2017-09-13T00:32:47.595Z,10.17
2017-09-13T00:33:57.557Z,10.15
2017-09-13T00:35:07.496Z,10.1
2017-09-13T00:36:16.793Z,10.17
2017-09-13T00:37:27.054Z,10.12
2017-09-13T00:38:37.318Z,10.15
2017-09-13T00:39:47.580Z,10.25
2017-09-13T00:40:57.840Z,10.24
2017-09-13T00:42:07.775Z,10.21
2017-09-13T00:43:17.394Z,10.15
2017-09-13T00:44:27.012Z,10.13
2017-09-13T00:45:37.295Z,10.2
2017-09-13T00:46:47.558Z,10.2
2017-09-13T00:47:57.824Z,10.17
2017-09-13T00:49:08.089Z,10.23
2017-09-13T00:50:17.711Z,10.21
2017-09-13T00:51:27.970Z,10.13
2017-09-13T00:52:37.909Z,10.18
2017-09-13T00:53:48.193Z,10.1
2017-09-13T00:54:58.452Z,10.07
2017-09-13T00:56:08.393Z,10.1
2017-09-13T00:57:18.341Z,10.13
2017-09-13T00:58:28.282Z,10.15
2017-09-13T00:59:38.220Z,10.21
2017-09-13T01:00:48.476Z,10.34
2017-09-13T01:01:58.739Z,10.33
2017-09-13T01:03:09.000Z,10.36
2017-09-13T01:04:19.265Z,10.34
2017-09-13T01:05:29.201Z,10.33
2017-09-13T01:06:39.462Z,10.38
2017-09-13T01:07:49.745Z,10.39
2017-09-13T01:09:00.010Z,10.31
2017-09-13T01:10:10.274Z,10.38
2017-09-13T01:11:20.540Z,10.27
2017-09-13T01:12:30.164Z,10.3
2017-09-13T01:13:40.428Z,10.23
2017-09-13T01:14:50.696Z,10.23
2017-09-13T01:16:00.955Z,10.21
2017-09-13T01:17:10.896Z,10.3
2017-09-13T01:18:20.838Z,10.15
2017-09-13T01:19:31.104Z,10.13
2017-09-13T01:20:41.076Z,10.02
2017-09-13T01:21:51.335Z,9.99
2017-09-13T01:23:01.273Z,9.95
2017-09-13T01:24:11.206Z,9.88
2017-09-13T01:25:21.461Z,9.85
2017-09-13T01:26:31.720Z,9.77
2017-09-13T01:27:41.663Z,9.72
2017-09-13T01:28:51.601Z,9.64
2017-09-13T01:30:01.876Z,9.66
2017-09-13T01:31:12.142Z,9.66
2017-09-13T01:32:22.404Z,9.58
2017-09-13T01:33:32.023Z,9.56
2017-09-13T01:34:41.965Z,9.55
2017-09-13T01:35:52.269Z,9.55
2017-09-13T01:37:02.530Z,9.51
2017-09-13T01:38:12.473Z,9.45
2017-09-13T01:39:22.731Z,9.54
2017-09-13T01:40:32.999Z,9.47
2017-09-13T01:41:43.287Z,9.47
2017-09-13T01:42:53.554Z,9.48
2017-09-13T01:44:03.816Z,9.52
2017-09-13T01:45:14.080Z,9.44
2017-09-13T01:46:24.022Z,9.55
2017-09-13T01:47:34.279Z,9.45
2017-09-13T01:48:44.221Z,9.58
2017-09-13T01:49:54.480Z,9.51
2017-09-13T01:51:04.754Z,9.49
2017-09-13T01:52:14.696Z,9.51
2017-09-13T01:53:24.314Z,9.55
2017-09-13T01:54:34.580Z,9.55
2017-09-13T01:55:44.842Z,9.62
2017-09-13T01:56:54.468Z,9.69
2017-09-13T01:58:04.727Z,9.66
2017-09-13T01:59:14.991Z,9.63
2017-09-13T02:00:25.253Z,9.7
2017-09-13T02:01:35.525Z,9.76
2017-09-13T02:02:45.791Z,9.77
2017-09-13T02:03:55.732Z,9.81
2017-09-13T02:05:05.987Z,9.76
2017-09-13T02:06:15.925Z,9.77
2017-09-13T02:07:25.862Z,9.77
2017-09-13T02:08:36.126Z,9.81
2017-09-13T02:09:45.741Z,9.77
2017-09-13T02:10:56.100Z,9.82
2017-09-13T02:12:06.044Z,9.84
2017-09-13T02:13:16.304Z,9.73
2017-09-13T02:14:26.246Z,9.7
2017-09-13T02:15:36.189Z,9.66
2017-09-13T02:16:46.135Z,9.67
2017-09-13T02:17:56.076Z,9.62
2017-09-13T02:19:06.373Z,9.62
2017-09-13T02:20:16.316Z,9.73
2017-09-13T02:21:26.264Z,9.72
2017-09-13T02:22:36.206Z,9.66
2017-09-13T02:23:46.483Z,9.7
2017-09-13T02:24:56.434Z,9.69
2017-09-13T02:26:06.695Z,9.76
2017-09-13T02:27:16.951Z,9.77
2017-09-13T02:28:26.893Z,9.81
2017-09-13T02:29:36.512Z,9.74
2017-09-13T02:30:46.772Z,9.72
2017-09-13T02:31:57.026Z,9.72
2017-09-13T02:33:07.312Z,9.63
2017-09-13T02:34:17.285Z,9.63
2017-09-13T02:35:27.566Z,9.64
2017-09-13T02:36:37.511Z,9.59
2017-09-13T02:37:47.450Z,9.69
2017-09-13T02:38:57.392Z,9.62
2017-09-13T02:40:07.665Z,9.62
2017-09-13T02:41:17.627Z,9.52
2017-09-13T02:42:27.567Z,9.58
2017-09-13T02:43:37.836Z,9.59
2017-09-13T02:44:48.095Z,9.56
2017-09-13T02:45:58.357Z,9.51
2017-09-13T02:47:08.307Z,9.58
2017-09-13T02:48:18.571Z,9.48
2017-09-13T02:49:28.557Z,9.42
2017-09-13T02:50:38.499Z,9.45
2017-09-13T02:51:48.435Z,9.49
2017-09-13T02:52:58.699Z,9.55
2017-09-13T02:54:08.966Z,9.47
2017-09-13T02:55:18.908Z,9.59
2017-09-13T02:56:29.171Z,9.64
2017-09-13T02:57:39.111Z,9.63
2017-09-13T02:58:48.737Z,9.59
2017-09-13T02:59:59.003Z,9.62
2017-09-13T03:01:09.266Z,9.52
2017-09-13T03:02:18.886Z,9.59
2017-09-13T03:03:29.154Z,9.52
2017-09-13T03:04:39.409Z,9.52
2017-09-13T03:05:49.360Z,9.58
2017-09-13T03:06:59.621Z,9.62
2017-09-13T03:08:09.881Z,9.52
2017-09-13T03:09:20.171Z,9.55
2017-09-13T03:10:30.437Z,9.56
2017-09-13T03:11:40.375Z,9.58
2017-09-13T03:12:49.999Z,9.62
2017-09-13T03:14:00.259Z,9.59
2017-09-13T03:15:10.522Z,9.55
2017-09-13T03:16:20.462Z,9.52
2017-09-13T03:17:30.408Z,9.54
2017-09-13T03:18:40.672Z,9.58
2017-09-13T03:19:50.608Z,9.45
2017-09-13T03:21:00.874Z,9.47
2017-09-13T03:22:11.144Z,9.44
2017-09-13T03:23:21.448Z,9.33
2017-09-13T03:24:31.702Z,9.34
2017-09-13T03:25:41.641Z,9.24
2017-09-13T03:26:51.908Z,9.29
2017-09-13T03:28:02.167Z,9.33
2017-09-13T03:29:12.422Z,9.29
2017-09-13T03:30:22.368Z,9.27
2017-09-13T03:31:32.319Z,9.22
2017-09-13T03:32:41.939Z,9.29
2017-09-13T03:33:51.561Z,9.26
2017-09-13T03:35:01.827Z,9.3
2017-09-13T03:36:12.093Z,9.26
2017-09-13T03:37:22.345Z,9.33
2017-09-13T03:38:32.302Z,9.29
2017-09-13T03:39:42.558Z,9.33
2017-09-13T03:40:52.826Z,9.22
2017-09-13T03:42:03.090Z,9.3
2017-09-13T03:43:12.708Z,9.3
2017-09-13T03:44:22.327Z,9.34
2017-09-13T03:45:32.588Z,9.18
2017-09-13T03:46:42.544Z,9.31
2017-09-13T03:47:52.485Z,9.27
2017-09-13T03:49:02.742Z,9.16
2017-09-13T03:50:12.680Z,9.18
2017-09-13T03:51:22.619Z,9.12
2017-09-13T03:52:32.883Z,9.08
2017-09-13T03:53:42.822Z,9.11
2017-09-13T03:54:53.078Z,9.11
2017-09-13T03:56:03.331Z,8.99
2017-09-13T03:57:13.598Z,9.09
2017-09-13T03:58:23.538Z,9.03
2017-09-13T03:59:33.802Z,9.08
2017-09-13T04:00:44.058Z,9.05
2017-09-13T04:01:54.026Z,8.99
2017-09-13T04:03:04.336Z,9.05
2017-09-13T04:04:14.280Z,9.05
2017-09-13T04:05:24.221Z,9.11
2017-09-13T04:06:34.159Z,8.99
2017-09-13T04:07:44.395Z,9.12
2017-09-13T04:08:54.332Z,9
2017-09-13T04:10:04.606Z,9.22
2017-09-13T04:11:14.864Z,9.15
2017-09-13T04:12:24.807Z,9.12
2017-09-13T04:13:36.527Z,9.13
2017-09-13T04:14:46.783Z,9.16
2017-09-13T04:15:56.726Z,9.15
2017-09-13T04:17:07.017Z,9.16
2017-09-13T04:18:16.956Z,9.16
2017-09-13T04:19:27.202Z,9.16
2017-09-13T04:20:37.461Z,9.21
2017-09-13T04:21:47.742Z,9.12
2017-09-13T04:22:57.677Z,9.16
2017-09-13T04:24:07.935Z,9.03
2017-09-13T04:25:18.446Z,9.11
2017-09-13T04:26:28.381Z,9.09
2017-09-13T04:27:38.326Z,9.05
2017-09-13T04:28:48.594Z,9.05
2017-09-13T04:29:58.849Z,9.05
2017-09-13T04:31:08.893Z,9.12
2017-09-13T04:32:18.512Z,9.08
2017-09-13T04:33:28.468Z,9.09
2017-09-13T04:34:38.738Z,9.09
2017-09-13T04:35:48.676Z,9.11
2017-09-13T04:37:00.716Z,9.16
2017-09-13T04:38:10.654Z,9.21
2017-09-13T04:39:20.313Z,9.12
2017-09-13T04:40:30.576Z,9.16
2017-09-13T04:41:40.518Z,9.02
2017-09-13T04:42:49.812Z,9.08
2017-09-13T04:44:00.072Z,9.05
2017-09-13T04:45:10.333Z,9.08
2017-09-13T04:46:19.953Z,9.09
2017-09-13T04:47:29.888Z,8.99
2017-09-13T04:48:39.826Z,9
2017-09-13T04:49:49.773Z,9.03
2017-09-13T04:51:00.037Z,8.89
2017-09-13T04:52:09.654Z,8.93
2017-09-13T04:53:19.599Z,8.87
2017-09-13T04:54:29.539Z,8.87
2017-09-13T04:55:39.477Z,8.89
2017-09-13T04:56:49.741Z,8.84
2017-09-13T04:57:59.688Z,8.78
2017-09-13T04:59:09.649Z,8.86
2017-09-13T05:00:19.917Z,8.82
2017-09-13T05:01:30.215Z,8.79
2017-09-13T05:02:40.476Z,8.86
2017-09-13T05:03:50.420Z,8.81
2017-09-13T05:05:00.366Z,8.74
2017-09-13T05:06:10.625Z,8.72
2017-09-13T05:07:20.564Z,8.74
2017-09-13T05:08:30.823Z,8.81
2017-09-13T05:09:41.087Z,8.68
2017-09-13T05:10:51.349Z,8.69
2017-09-13T05:12:01.608Z,8.69
2017-09-13T05:13:11.555Z,8.68
2017-09-13T05:14:21.815Z,8.57
2017-09-13T05:15:31.437Z,8.63
2017-09-13T05:16:41.704Z,8.6
2017-09-13T05:17:51.965Z,8.66
2017-09-13T05:19:01.905Z,8.54
2017-09-13T05:20:11.848Z,8.56
2017-09-13T05:21:21.786Z,8.56
2017-09-13T05:22:32.049Z,8.69
2017-09-13T05:23:42.317Z,8.71
2017-09-13T05:24:52.261Z,8.69
2017-09-13T05:26:02.197Z,8.74
2017-09-13T05:27:12.135Z,8.69
2017-09-13T05:28:22.070Z,8.75
2017-09-13T05:29:31.365Z,8.77
2017-09-13T05:30:41.656Z,8.79
2017-09-13T05:31:51.600Z,8.84
2017-09-13T05:33:01.868Z,8.86
2017-09-13T05:34:11.494Z,8.84
2017-09-13T05:35:21.439Z,8.84
2017-09-13T05:36:31.710Z,8.86
2017-09-13T05:37:41.969Z,8.87
2017-09-13T05:38:52.233Z,8.93
2017-09-13T05:40:02.174Z,8.9
2017-09-13T05:41:11.797Z,8.93
2017-09-13T05:42:22.059Z,8.92
2017-09-13T05:43:32.321Z,8.95
2017-09-13T05:44:41.940Z,8.95
2017-09-13T05:45:51.881Z,8.89
2017-09-13T05:47:01.831Z,8.84
2017-09-13T05:48:11.771Z,8.97
2017-09-13T05:49:22.035Z,8.99
2017-09-13T05:50:32.298Z,8.97
2017-09-13T05:51:41.922Z,8.93
2017-09-13T05:52:52.192Z,8.99
2017-09-13T05:54:02.138Z,8.97
2017-09-13T05:55:12.076Z,8.97
2017-09-13T05:56:22.338Z,8.99
2017-09-13T05:57:32.604Z,9.02
2017-09-13T05:58:42.551Z,9.02
2017-09-13T05:59:52.822Z,9.09
2017-09-13T06:01:02.767Z,9.05
2017-09-13T06:02:13.440Z,9.13
2017-09-13T06:03:23.391Z,9.22
2017-09-13T06:04:33.652Z,9.29
2017-09-13T06:05:43.916Z,9.39
2017-09-13T06:06:54.180Z,9.33
2017-09-13T06:08:03.801Z,9.42
2017-09-13T06:09:14.068Z,9.49
2017-09-13T06:10:24.334Z,9.56
2017-09-13T06:11:34.593Z,9.58
2017-09-13T06:12:44.216Z,9.64
2017-09-13T06:13:54.482Z,9.72
2017-09-13T06:15:04.745Z,9.73
2017-09-13T06:16:14.685Z,9.82
2017-09-13T06:17:24.949Z,9.77
2017-09-13T06:18:34.890Z,9.77
2017-09-13T06:19:45.156Z,9.82
2017-09-13T06:20:55.104Z,9.88
2017-09-13T06:22:05.366Z,9.88
2017-09-13T06:23:15.323Z,9.91
2017-09-13T06:24:25.277Z,10.07
2017-09-13T06:25:35.544Z,10.03
2017-09-13T06:26:45.500Z,10.05
2017-09-13T06:27:55.438Z,10.17
2017-09-13T06:29:05.378Z,10.15
2017-09-13T06:30:15.321Z,10.17
2017-09-13T06:31:25.591Z,10.21
2017-09-13T06:32:35.857Z,10.27
2017-09-13T06:33:45.795Z,10.23
2017-09-13T06:34:55.413Z,10.24
2017-09-13T06:36:04.712Z,10.24
2017-09-13T06:37:14.652Z,10.25
2017-09-13T06:38:24.271Z,10.25
2017-09-13T06:39:34.214Z,10.33
2017-09-13T06:40:44.481Z,10.27
2017-09-13T06:41:54.428Z,10.38
2017-09-13T06:43:04.051Z,10.34
2017-09-13T06:44:13.671Z,10.38
2017-09-13T06:45:23.613Z,10.33
2017-09-13T06:46:33.557Z,10.38
2017-09-13T06:47:43.499Z,10.39
2017-09-13T06:48:53.467Z,10.41
2017-09-13T06:50:03.827Z,10.39
2017-09-13T06:51:13.767Z,10.46
2017-09-13T06:52:23.703Z,10.46
2017-09-13T06:53:33.648Z,10.49
2017-09-13T06:54:43.909Z,10.46
2017-09-13T06:55:53.856Z,10.43
2017-09-13T06:57:04.132Z,10.53
2017-09-13T06:58:14.079Z,10.45
2017-09-13T06:59:24.019Z,10.48
2017-09-13T07:00:33.973Z,10.51
2017-09-13T07:01:44.237Z,10.57
2017-09-13T07:02:54.500Z,10.59
2017-09-13T07:04:04.789Z,10.59
2017-09-13T07:05:15.097Z,10.72
2017-09-13T07:06:25.049Z,10.67
2017-09-13T07:07:34.994Z,10.86
2017-09-13T07:08:45.258Z,10.77
2017-09-13T07:09:55.206Z,10.9
2017-09-13T07:11:05.474Z,10.82
2017-09-13T07:12:15.426Z,10.87
2017-09-13T07:13:25.699Z,10.9
2017-09-13T07:14:35.320Z,10.87
2017-09-13T07:15:45.268Z,11
2017-09-13T07:16:55.211Z,11.01
2017-09-13T07:18:05.154Z,11.04
2017-09-13T07:19:14.453Z,11.01
2017-09-13T07:20:24.717Z,11.07
2017-09-13T07:21:34.672Z,11.12
2017-09-13T07:22:44.619Z,11.23
2017-09-13T07:23:54.253Z,11.23
2017-09-13T07:25:03.875Z,11.18
2017-09-13T07:26:14.141Z,11.3
2017-09-13T07:27:23.772Z,11.48
2017-09-13T07:28:33.717Z,11.48
2017-09-13T07:29:44.006Z,11.53
2017-09-13T07:30:53.959Z,11.62
2017-09-13T07:32:04.235Z,11.7
2017-09-13T07:33:14.499Z,11.77
2017-09-13T07:34:24.454Z,11.85
2017-09-13T07:35:34.730Z,11.93
2017-09-13T07:36:45.040Z,11.86
2017-09-13T07:37:54.667Z,11.93
2017-09-13T07:39:04.610Z,11.95
2017-09-13T07:40:14.235Z,11.89
2017-09-13T07:41:24.185Z,11.86
2017-09-13T07:42:34.459Z,11.89
2017-09-13T07:43:44.405Z,11.99
2017-09-13T07:44:54.670Z,12.11
2017-09-13T07:46:04.943Z,12.14
2017-09-13T07:47:14.886Z,12.23
2017-09-13T07:48:24.834Z,12.25
2017-09-13T07:49:34.776Z,12.35
2017-09-13T07:50:45.063Z,12.4
2017-09-13T07:51:55.326Z,12.44
2017-09-13T07:53:05.280Z,12.53
2017-09-13T07:54:15.231Z,12.57
2017-09-13T07:55:24.853Z,12.51
2017-09-13T07:56:34.801Z,12.47
2017-09-13T07:57:44.740Z,12.53
2017-09-13T07:58:55.004Z,12.65
2017-09-13T08:00:05.280Z,12.68
2017-09-13T08:01:15.227Z,12.7
2017-09-13T08:02:25.171Z,12.69
2017-09-13T08:03:35.445Z,12.78
2017-09-13T08:04:45.734Z,12.63
2017-09-13T08:05:55.353Z,12.62
2017-09-13T08:07:05.304Z,12.65
2017-09-13T08:08:15.254Z,12.66
2017-09-13T08:09:26.179Z,12.8
2017-09-13T08:10:36.886Z,12.91
2017-09-13T08:11:47.158Z,12.9
2017-09-13T08:12:57.101Z,12.98
2017-09-13T08:14:07.368Z,12.88
2017-09-13T08:15:17.635Z,12.83
2017-09-13T08:16:27.586Z,12.72
2017-09-13T08:17:37.859Z,12.69
2017-09-13T08:18:47.487Z,12.8
2017-09-13T08:19:57.110Z,12.87
2017-09-13T08:21:07.096Z,12.98
2017-09-13T08:22:17.047Z,13.08
2017-09-13T08:23:27.308Z,13.19
2017-09-13T08:24:37.255Z,13.16
2017-09-13T08:25:47.527Z,13.2
2017-09-13T08:26:57.845Z,13.24
2017-09-13T08:28:08.111Z,13.13
2017-09-13T08:29:17.729Z,13.08
2017-09-13T08:30:27.682Z,13.2
2017-09-13T08:31:37.627Z,13.27
2017-09-13T08:32:46.929Z,13.27
2017-09-13T08:33:57.205Z,13.24
2017-09-13T08:35:07.157Z,13.3
2017-09-13T08:36:17.426Z,13.4
2017-09-13T08:37:27.695Z,13.39
2017-09-13T08:38:37.710Z,13.6
2017-09-13T08:39:47.656Z,13.57
2017-09-13T08:40:57.926Z,13.5
2017-09-13T08:42:07.875Z,13.42
2017-09-13T08:43:17.504Z,13.43
2017-09-13T08:44:27.461Z,13.52
2017-09-13T08:45:37.734Z,13.58
2017-09-13T08:46:47.040Z,13.67
2017-09-13T08:47:57.312Z,13.78
2017-09-13T08:49:07.582Z,13.79
2017-09-13T08:50:17.850Z,13.79
2017-09-13T08:51:27.471Z,14.01
2017-09-13T08:52:37.416Z,14.11
2017-09-13T08:53:47.363Z,14.18
2017-09-13T08:54:57.634Z,14.07
2017-09-13T08:56:07.262Z,14.12
2017-09-13T08:57:17.208Z,14.16
2017-09-13T08:58:26.516Z,14.23
2017-09-13T08:59:36.469Z,14.26
2017-09-13T09:00:46.741Z,14.15
2017-09-13T09:01:57.015Z,14.22
2017-09-13T09:03:07.287Z,14.38
2017-09-13T09:04:17.556Z,14.4
2017-09-13T09:05:27.508Z,14.31
2017-09-13T09:06:37.454Z,14.28
2017-09-13T09:07:47.722Z,14.37
2017-09-13T09:08:57.991Z,14.43
2017-09-13T09:10:07.950Z,14.43
2017-09-13T09:11:17.588Z,14.38
2017-09-13T09:12:27.537Z,14.48
2017-09-13T09:13:37.807Z,14.58
2017-09-13T09:14:47.753Z,14.56
2017-09-13T09:15:57.611Z,14.63
2017-09-13T09:17:07.561Z,14.7
2017-09-13T09:18:17.189Z,14.71
2017-09-13T09:19:27.133Z,14.71
2017-09-13T09:20:36.436Z,14.74
2017-09-13T09:21:46.707Z,14.81
2017-09-13T09:22:56.652Z,14.77
2017-09-13T09:24:06.281Z,14.82
2017-09-13T09:25:16.564Z,14.87
2017-09-13T09:26:26.523Z,14.86
2017-09-13T09:27:36.471Z,14.67
2017-09-13T09:28:46.427Z,14.38
2017-09-13T09:29:56.695Z,14.36
2017-09-13T09:31:06.959Z,14.38
2017-09-13T09:32:16.586Z,14.4
2017-09-13T09:33:26.209Z,14.38
2017-09-13T09:34:36.483Z,14.52
2017-09-13T09:35:46.749Z,14.37
2017-09-13T09:36:57.026Z,14.41
2017-09-13T09:38:06.973Z,14.33
2017-09-13T09:39:16.605Z,14.3
2017-09-13T09:40:26.240Z,14.37
2017-09-13T09:41:36.187Z,14.41
2017-09-13T09:42:46.463Z,14.33
2017-09-13T09:43:56.742Z,14.49
2017-09-13T09:45:07.010Z,14.45
2017-09-13T09:46:16.960Z,14.44
2017-09-13T09:47:26.273Z,14.52
2017-09-13T09:48:36.225Z,14.63
2017-09-13T09:49:46.486Z,14.73
2017-09-13T09:50:56.113Z,14.53
2017-09-13T09:52:06.061Z,14.45
2017-09-13T09:53:16.342Z,14.59
2017-09-13T09:54:25.972Z,14.58
2017-09-13T09:55:36.236Z,14.63
2017-09-13T09:56:46.184Z,14.68
2017-09-13T09:57:55.494Z,14.73
2017-09-13T09:59:05.770Z,14.77
2017-09-13T10:00:15.718Z,14.79
2017-09-13T10:01:25.991Z,14.81
2017-09-13T10:02:35.310Z,14.9
2017-09-13T10:03:45.257Z,14.93
2017-09-13T10:04:54.882Z,14.99
2017-09-13T10:06:05.161Z,15
2017-09-13T10:07:15.109Z,15.04
2017-09-13T10:08:24.733Z,15.11
2017-09-13T10:09:34.688Z,15.11
2017-09-13T10:10:44.675Z,15.23
2017-09-13T10:11:54.945Z,15.19
2017-09-13T10:13:04.914Z,15.22
2017-09-13T10:14:15.199Z,15.3
2017-09-13T10:15:25.181Z,15.3
2017-09-13T10:16:34.809Z,15.36
2017-09-13T10:17:44.771Z,15.5
2017-09-13T10:18:54.735Z,15.48
2017-09-13T10:20:05.018Z,15.55
2017-09-13T10:21:14.969Z,15.59
2017-09-13T10:22:24.928Z,15.62
2017-09-13T10:23:35.196Z,15.63
2017-09-13T10:24:45.468Z,15.59
2017-09-13T10:25:55.417Z,15.57
2017-09-13T10:27:05.696Z,15.57
2017-09-13T10:28:15.969Z,15.65
2017-09-13T10:29:26.239Z,15.67
2017-09-13T10:30:36.506Z,15.59
2017-09-13T10:31:46.778Z,15.45
2017-09-13T10:32:57.049Z,15.37
2017-09-13T10:34:06.999Z,15.44
2017-09-13T10:35:16.623Z,15.45
2017-09-13T10:36:26.572Z,15.36
2017-09-13T10:37:36.522Z,15.41
2017-09-13T10:38:46.814Z,15.3
2017-09-13T10:39:57.083Z,15.39
2017-09-13T10:41:06.705Z,15.43
2017-09-13T10:42:16.658Z,15.44
2017-09-13T10:43:26.603Z,15.43
2017-09-13T10:44:36.553Z,15.39
2017-09-13T10:45:46.500Z,15.35
2017-09-13T10:46:56.129Z,15.33
2017-09-13T10:48:06.401Z,15.39
2017-09-13T10:49:16.669Z,15.33
2017-09-13T10:50:26.299Z,15.43
2017-09-13T10:51:36.565Z,15.44
2017-09-13T10:52:46.833Z,15.59
2017-09-13T10:53:56.789Z,15.65
2017-09-13T10:55:07.067Z,15.8
2017-09-13T10:56:17.332Z,15.98
2017-09-13T10:57:26.639Z,16
2017-09-13T10:58:36.268Z,16.25
2017-09-13T10:59:46.532Z,16.41
2017-09-13T11:00:56.802Z,16.51
2017-09-13T11:02:07.076Z,16.64
2017-09-13T11:03:16.717Z,16.68
2017-09-13T11:04:26.681Z,16.89
2017-09-13T11:05:36.634Z,16.87
2017-09-13T11:06:46.582Z,16.98
2017-09-13T11:07:56.852Z,16.98
2017-09-13T11:09:07.126Z,17.02
2017-09-13T11:10:16.758Z,17.01
2017-09-13T11:11:26.390Z,17.09
2017-09-13T11:12:36.659Z,17.16
2017-09-13T11:13:46.605Z,17.22
2017-09-13T11:14:56.876Z,17.24
2017-09-13T11:16:06.507Z,17.27
2017-09-13T11:17:16.778Z,17.2
2017-09-13T11:18:26.407Z,17.3
2017-09-13T11:19:36.678Z,17.22
2017-09-13T11:20:46.953Z,17.35
2017-09-13T11:21:57.227Z,17.22
2017-09-13T11:23:07.498Z,17.16
2017-09-13T11:24:17.776Z,17.22
2017-09-13T11:25:28.052Z,17.16
2017-09-13T11:26:38.322Z,17.17
2017-09-13T11:27:48.588Z,17.1
2017-09-13T11:28:58.865Z,17.1
2017-09-13T11:30:08.815Z,17.05
2017-09-13T11:31:17.799Z,17.01
2017-09-13T11:32:28.072Z,16.99
2017-09-13T11:33:37.702Z,16.89
2017-09-13T11:34:47.968Z,16.98
2017-09-13T11:35:57.916Z,17.17
2017-09-13T11:37:07.869Z,17.31
2017-09-13T11:38:18.152Z,17.35
2017-09-13T11:39:28.103Z,17.31
2017-09-13T11:40:38.372Z,17.47
2017-09-13T11:41:48.335Z,17.8
2017-09-13T11:42:58.607Z,17.59
2017-09-13T11:44:08.553Z,17.72
2017-09-13T11:45:18.506Z,18.18
2017-09-13T11:46:28.774Z,18.43
2017-09-13T11:47:39.057Z,18.81
2017-09-13T11:48:49.337Z,19.12
2017-09-13T11:49:59.639Z,19.09
2017-09-13T11:51:09.917Z,19.37
2017-09-13T11:52:19.231Z,19.74
2017-09-13T11:53:29.500Z,19.87
2017-09-13T11:54:39.454Z,20.27
2017-09-13T11:55:49.727Z,20.39
2017-09-13T11:56:59.366Z,20.37
2017-09-13T11:58:08.996Z,20.74
2017-09-13T11:59:18.630Z,20.82
2017-09-13T12:00:27.946Z,21.08
2017-09-13T12:01:37.901Z,21.13
2017-09-13T12:02:47.539Z,21
2017-09-13T12:03:57.501Z,21.04
2017-09-13T12:05:07.458Z,20.96
2017-09-13T12:06:16.772Z,20.6
2017-09-13T12:07:27.043Z,20.78
2017-09-13T12:08:37.000Z,21.1
2017-09-13T12:09:47.329Z,20.85
2017-09-13T12:10:57.291Z,20.82
2017-09-13T12:12:07.569Z,20.8
2017-09-13T12:13:17.201Z,20.82
2017-09-13T12:14:27.150Z,20.63
2017-09-13T12:15:37.426Z,20.66
2017-09-13T12:16:47.392Z,20.77
2017-09-13T12:17:57.026Z,20.75
2017-09-13T12:19:06.976Z,20.49
2017-09-13T12:20:16.930Z,20.3
2017-09-13T12:21:26.597Z,20.11
2017-09-13T12:22:36.230Z,19.99
2017-09-13T12:23:45.864Z,19.67
2017-09-13T12:24:56.137Z,19.62
2017-09-13T12:26:06.415Z,19.37
2017-09-13T12:27:16.368Z,19.24
2017-09-13T12:28:26.667Z,19.17
2017-09-13T12:29:36.277Z,18.94
2017-09-13T12:30:46.584Z,19.08
2017-09-13T12:31:56.543Z,18.88
2017-09-13T12:33:06.508Z,18.88
2017-09-13T12:34:16.148Z,18.86
2017-09-13T12:35:26.097Z,18.79
2017-09-13T12:36:36.369Z,18.79
2017-09-13T12:37:46.638Z,18.76
2017-09-13T12:38:56.621Z,18.73
2017-09-13T12:40:06.899Z,18.79
2017-09-13T12:41:16.854Z,18.88
2017-09-13T12:42:27.135Z,19
2017-09-13T12:43:36.766Z,19.09
2017-09-13T12:44:46.720Z,19.08
2017-09-13T12:45:56.997Z,19.24
2017-09-13T12:47:07.273Z,19.47
2017-09-13T12:48:16.580Z,19.7
2017-09-13T12:49:26.527Z,20
2017-09-13T12:50:36.158Z,20.29
2017-09-13T12:51:46.116Z,20.63
2017-09-13T12:52:56.063Z,20.88
2017-09-13T12:54:06.013Z,21.37
2017-09-13T12:55:16.287Z,21.7
2017-09-13T12:56:26.562Z,22.21
2017-09-13T12:57:36.847Z,22.73
2017-09-13T12:58:46.807Z,23.17
2017-09-13T12:59:57.080Z,23.52
2017-09-13T13:01:07.370Z,23.92
2017-09-13T13:02:17.327Z,24.03
2017-09-13T13:03:27.608Z,24.36
2017-09-13T13:04:37.886Z,24.58
2017-09-13T13:05:47.521Z,24.55
2017-09-13T13:06:57.485Z,24.38
2017-09-13T13:08:07.484Z,24.1
2017-09-13T13:09:16.798Z,24.07
2017-09-13T13:10:27.076Z,23.99
2017-09-13T13:11:37.031Z,24.03
2017-09-13T13:12:46.984Z,24.07
2017-09-13T13:13:56.625Z,23.74
2017-09-13T13:15:06.905Z,23.54
2017-09-13T13:16:17.183Z,23.36
2017-09-13T13:17:27.465Z,23.56
2017-09-13T13:18:37.421Z,23.54
2017-09-13T13:19:47.379Z,23.51
2017-09-13T13:20:57.330Z,23.33
2017-09-13T13:22:07.607Z,23.16
2017-09-13T13:23:17.613Z,22.89
2017-09-13T13:24:27.251Z,22.43
2017-09-13T13:25:37.212Z,22.43
2017-09-13T13:26:46.881Z,21.92
2017-09-13T13:27:57.154Z,21.69
2017-09-13T13:29:06.787Z,21.69
2017-09-13T13:30:16.739Z,21.56
2017-09-13T13:31:27.019Z,21.38
2017-09-13T13:32:36.667Z,21.3
2017-09-13T13:33:46.626Z,21.11
2017-09-13T13:34:56.905Z,20.96
2017-09-13T13:36:07.181Z,20.9
2017-09-13T13:37:17.136Z,20.83
2017-09-13T13:38:27.092Z,20.75
2017-09-13T13:39:37.367Z,20.73
2017-09-13T13:40:47.641Z,20.63
2017-09-13T13:41:57.590Z,20.64
2017-09-13T13:43:07.899Z,20.6
2017-09-13T13:44:18.184Z,20.6
2017-09-13T13:45:27.811Z,20.49
2017-09-13T13:46:37.443Z,20.44
2017-09-13T13:47:47.396Z,20.42
2017-09-13T13:48:57.670Z,20.42
2017-09-13T13:50:07.949Z,20.42
2017-09-13T13:51:17.901Z,20.37
2017-09-13T13:52:27.857Z,20.24
2017-09-13T13:53:37.489Z,20.12
2017-09-13T13:54:47.441Z,20.03
2017-09-13T13:55:57.397Z,19.82
2017-09-13T13:57:07.355Z,19.81
2017-09-13T13:58:17.311Z,19.67
2017-09-13T13:59:27.266Z,19.63
2017-09-13T14:00:37.215Z,19.47
2017-09-13T14:01:47.170Z,19.47
2017-09-13T14:02:57.441Z,19.44
2017-09-13T14:04:07.392Z,19.41
2017-09-13T14:05:17.025Z,19.35
2017-09-13T14:06:27.300Z,19.3
2017-09-13T14:07:37.593Z,19.24
2017-09-13T14:08:47.544Z,19.29
2017-09-13T14:09:57.497Z,19.24
2017-09-13T14:11:07.771Z,19.11
2017-09-13T14:12:17.725Z,19.04
2017-09-13T14:13:27.675Z,19.11
2017-09-13T14:14:37.632Z,19.04
2017-09-13T14:15:47.900Z,18.83
2017-09-13T14:16:57.527Z,18.68
2017-09-13T14:18:07.156Z,18.63
2017-09-13T14:19:16.798Z,18.61
2017-09-13T14:20:26.779Z,18.52
2017-09-13T14:21:37.049Z,18.41
2017-09-13T14:22:47.320Z,18.23
2017-09-13T14:23:57.276Z,18.23
2017-09-13T14:25:07.550Z,18.15
2017-09-13T14:26:17.827Z,18
2017-09-13T14:27:28.101Z,17.97
2017-09-13T14:28:38.051Z,17.84
2017-09-13T14:29:48.012Z,17.76
2017-09-13T14:30:57.962Z,17.71
2017-09-13T14:32:07.916Z,17.65
2017-09-13T14:33:18.185Z,17.56
2017-09-13T14:34:27.808Z,17.57
2017-09-13T14:35:38.078Z,17.46
2017-09-13T14:36:47.708Z,17.3
2017-09-13T14:37:57.989Z,17.2
2017-09-13T14:39:07.944Z,17.2
2017-09-13T14:40:18.217Z,17.13
2017-09-13T14:41:28.175Z,17.22
2017-09-13T14:42:37.808Z,17.14
2017-09-13T14:43:47.436Z,16.98
2017-09-13T14:44:57.391Z,16.91
2017-09-13T14:46:07.337Z,16.89
2017-09-13T14:47:17.286Z,16.89
2017-09-13T14:48:26.912Z,16.8
2017-09-13T14:49:37.191Z,16.69
2017-09-13T14:50:46.818Z,16.65
2017-09-13T14:51:56.768Z,16.58
2017-09-13T14:53:07.044Z,16.64
2017-09-13T14:54:17.312Z,16.61
2017-09-13T14:55:27.590Z,16.65
2017-09-13T14:56:37.536Z,16.55
2017-09-13T14:57:47.804Z,16.57
2017-09-13T14:58:57.747Z,16.55
2017-09-13T15:00:08.015Z,16.59
2017-09-13T15:01:17.645Z,16.55
2017-09-13T15:02:27.273Z,16.49
2017-09-13T15:03:37.536Z,16.49
2017-09-13T15:04:47.492Z,16.55
2017-09-13T15:05:57.770Z,16.46
2017-09-13T15:07:08.050Z,16.4
2017-09-13T15:08:17.997Z,16.46
2017-09-13T15:09:27.943Z,16.46
2017-09-13T15:10:37.904Z,16.44
2017-09-13T15:11:47.527Z,16.49
2017-09-13T15:12:57.476Z,16.43
2017-09-13T15:14:07.426Z,16.44
2017-09-13T15:15:17.375Z,16.34